createdAt,value
2023-11-15T00:01:23.404Z,93725.16
2023-11-15T00:03:50.420Z,93717.94
2023-11-15T00:06:17.634Z,93721.28
2023-11-15T00:08:44.509Z,93723.25
2023-11-15T00:11:11.371Z,93722.13
2023-11-15T00:13:38.296Z,93725.13
2023-11-15T00:16:05.863Z,93730.03
2023-11-15T00:18:32.606Z,93730.47
2023-11-15T00:20:59.594Z,93732.38
2023-11-15T00:23:27.699Z,93735.34
2023-11-15T00:25:54.565Z,93728.91
2023-11-15T00:28:21.469Z,93709.06
2023-11-15T00:30:48.276Z,93713.66
2023-11-15T00:33:15.206Z,93712.41
2023-11-15T00:35:42.104Z,93713.28
2023-11-15T00:38:09.246Z,93711.78
2023-11-15T00:40:36.991Z,93716.38
2023-11-15T00:43:04.882Z,93722.06
2023-11-15T00:45:31.969Z,93734.34
2023-11-15T00:47:58.765Z,93738.91
2023-11-15T00:50:25.854Z,93733.25
2023-11-15T00:52:52.543Z,93746.56
2023-11-15T00:55:19.252Z,93738.31
2023-11-15T00:57:46.800Z,93727.69
2023-11-15T01:00:33.948Z,93714.56
2023-11-15T01:03:01.049Z,93713.59
2023-11-15T01:05:30.189Z,93724.88
2023-11-15T01:07:57.195Z,93723.75
2023-11-15T01:10:26.176Z,93720.28
2023-11-15T01:12:54.675Z,93690.06
2023-11-15T01:15:23.182Z,93682.56
2023-11-15T01:17:51.757Z,93681.47
2023-11-15T01:20:19.096Z,93678.75
2023-11-15T01:22:46.811Z,93671.09
2023-11-15T01:25:14.862Z,93666.91
2023-11-15T01:27:41.602Z,93662.66
2023-11-15T01:30:10.009Z,93656.91
2023-11-15T01:32:36.906Z,93655.75
2023-11-15T01:35:04.087Z,93655.34
2023-11-15T01:37:30.722Z,93673.28
2023-11-15T01:39:57.498Z,93668.66
2023-11-15T01:42:24.137Z,93668.31
2023-11-15T01:44:50.847Z,93662.97
2023-11-15T01:47:17.609Z,93666.09
2023-11-15T01:49:44.450Z,93665.28
2023-11-15T01:52:11.136Z,93656.63
2023-11-15T01:54:37.910Z,93636.66
2023-11-15T01:57:05.104Z,93645.47
2023-11-15T01:59:32.141Z,93642.69
2023-11-15T02:01:58.900Z,93632.09
2023-11-15T02:04:25.565Z,93614.66
2023-11-15T02:06:52.948Z,93614.63
2023-11-15T02:09:19.664Z,93607.59
2023-11-15T02:11:46.442Z,93615.34
2023-11-15T02:14:13.141Z,93572.41
2023-11-15T02:16:40.094Z,93595.97
2023-11-15T02:19:06.950Z,93595.59
2023-11-15T02:21:33.620Z,93585.00
2023-11-15T02:24:00.572Z,93575.06
2023-11-15T02:26:27.388Z,93554.59
2023-11-15T02:28:55.245Z,93550.44
2023-11-15T02:31:22.143Z,93562.53
2023-11-15T02:33:48.797Z,93564.94
2023-11-15T02:36:15.564Z,93566.06
2023-11-15T02:39:51.060Z,93527.84
2023-11-15T02:42:17.781Z,93569.25
2023-11-15T02:44:44.464Z,93577.31
2023-11-15T02:47:11.201Z,93586.22
2023-11-15T02:49:38.525Z,93568.84
2023-11-15T02:52:05.627Z,93573.75
2023-11-15T02:54:32.312Z,93553.13
2023-11-15T02:56:59.057Z,93570.00
2023-11-15T02:59:25.760Z,93572.66
2023-11-15T03:01:52.653Z,93565.03
2023-11-15T03:04:19.429Z,93584.69
2023-11-15T03:06:46.170Z,93586.03
2023-11-15T03:09:14.781Z,93600.19
2023-11-15T03:11:41.561Z,93593.13
2023-11-15T03:14:08.254Z,93606.06
2023-11-15T03:16:35.200Z,93564.56
2023-11-15T03:19:02.304Z,93600.88
2023-11-15T03:21:29.489Z,93592.75
2023-11-15T03:23:56.324Z,93574.09
2023-11-15T03:26:23.007Z,93587.47
2023-11-15T03:28:49.835Z,93573.84
2023-11-15T03:31:16.487Z,93565.50
2023-11-15T03:33:48.593Z,93557.28
2023-11-15T03:36:17.054Z,93557.03
2023-11-15T03:38:43.948Z,93566.75
2023-11-15T03:41:13.736Z,93568.91
2023-11-15T03:43:41.227Z,93564.28
2023-11-15T03:46:07.986Z,93578.22
2023-11-15T03:48:35.036Z,93573.25
2023-11-15T03:51:01.822Z,93565.41
2023-11-15T03:53:28.630Z,93566.38
2023-11-15T03:55:55.394Z,93563.03
2023-11-15T03:58:22.181Z,93561.47
2023-11-15T04:00:49.401Z,93533.09
2023-11-15T04:03:17.738Z,93526.59
2023-11-15T04:05:45.875Z,93548.44
2023-11-15T04:08:13.865Z,93521.69
2023-11-15T04:10:40.649Z,93519.78
2023-11-15T04:13:07.364Z,93501.00
2023-11-15T04:15:34.087Z,93464.88
2023-11-15T04:18:00.816Z,93515.19
2023-11-15T04:20:28.542Z,93531.00
2023-11-15T04:22:55.246Z,93516.78
2023-11-15T04:25:21.875Z,93504.66
2023-11-15T04:27:48.686Z,93506.56
2023-11-15T04:30:17.121Z,93532.31
2023-11-15T04:32:45.400Z,93456.22
2023-11-15T04:35:15.997Z,93535.63
2023-11-15T04:37:42.699Z,93488.78
2023-11-15T04:40:11.478Z,93464.34
2023-11-15T04:42:38.478Z,93481.97
2023-11-15T04:45:06.508Z,93501.53
2023-11-15T04:47:33.747Z,93455.16
2023-11-15T04:50:02.299Z,93473.84
2023-11-15T04:52:29.235Z,93475.97
2023-11-15T04:54:55.943Z,93474.09
2023-11-15T04:57:26.339Z,93441.59
2023-11-15T04:59:58.814Z,93451.44
2023-11-15T05:02:28.868Z,93463.13
2023-11-15T05:04:56.381Z,93478.81
2023-11-15T05:07:26.390Z,93436.78
2023-11-15T05:09:53.059Z,93423.22
2023-11-15T05:12:19.773Z,93439.78
2023-11-15T05:14:46.685Z,93444.66
2023-11-15T05:17:13.616Z,93442.38
2023-11-15T05:19:40.521Z,93459.53
2023-11-15T05:22:07.209Z,93478.94
2023-11-15T05:24:38.675Z,93451.69
2023-11-15T05:27:05.493Z,93455.81
2023-11-15T05:29:35.623Z,93454.09
2023-11-15T05:32:02.295Z,93462.03
2023-11-15T05:34:29.496Z,93424.59
2023-11-15T05:36:56.299Z,93428.44
2023-11-15T05:39:23.670Z,93444.25
2023-11-15T05:44:32.456Z,93429.09
2023-11-15T05:47:03.654Z,93453.06
2023-11-15T05:49:39.278Z,93445.78
2023-11-15T05:52:06.560Z,93428.06
2023-11-15T05:54:34.995Z,93418.50
2023-11-15T05:57:02.378Z,93445.94
2023-11-15T05:59:29.165Z,93433.69
2023-11-15T06:02:14.709Z,93413.72
2023-11-15T06:04:41.530Z,93439.44
2023-11-15T06:07:08.268Z,93429.75
2023-11-15T06:09:34.922Z,93413.72
2023-11-15T06:12:02.399Z,93451.25
2023-11-15T06:14:29.097Z,93442.03
2023-11-15T06:16:55.716Z,93431.78
2023-11-15T06:19:24.366Z,93431.41
2023-11-15T06:21:51.163Z,93433.25
2023-11-15T06:24:17.847Z,93442.81
2023-11-15T06:26:45.592Z,93454.69
2023-11-15T06:29:12.564Z,93461.22
2023-11-15T06:31:39.463Z,93409.50
2023-11-15T06:34:07.030Z,93466.34
2023-11-15T06:36:36.202Z,93452.91
2023-11-15T06:39:07.309Z,93439.47
2023-11-15T06:41:35.866Z,93465.97
2023-11-15T06:44:04.775Z,93453.22
2023-11-15T06:46:31.459Z,93442.38
2023-11-15T06:48:58.155Z,93446.81
2023-11-15T06:51:25.084Z,93451.53
2023-11-15T06:53:54.576Z,93450.56
2023-11-15T06:56:21.562Z,93454.69
2023-11-15T06:58:48.363Z,93447.91
2023-11-15T07:01:15.073Z,93450.78
2023-11-15T07:03:45.027Z,93449.19
2023-11-15T07:06:12.003Z,93451.41
2023-11-15T07:08:38.819Z,93447.00
2023-11-15T07:11:09.292Z,93444.28
2023-11-15T07:13:36.253Z,93454.75
2023-11-15T07:16:05.513Z,93460.16
2023-11-15T07:18:35.745Z,93475.38
2023-11-15T07:21:02.476Z,93443.56
2023-11-15T07:23:29.318Z,93457.72
2023-11-15T07:25:56.615Z,93460.78
2023-11-15T07:28:24.760Z,93440.47
2023-11-15T07:30:52.277Z,93450.00
2023-11-15T07:33:22.583Z,93451.06
2023-11-15T07:35:50.188Z,93455.72
2023-11-15T07:38:17.339Z,93457.84
2023-11-15T07:40:44.080Z,93451.00
2023-11-15T07:43:11.994Z,93450.13
2023-11-15T07:45:39.895Z,93466.34
2023-11-15T07:48:11.650Z,93458.13
2023-11-15T07:50:38.906Z,93438.13
2023-11-15T07:53:05.729Z,93452.53
2023-11-15T07:55:33.220Z,93447.50
2023-11-15T07:57:59.940Z,93464.41
2023-11-15T08:00:26.670Z,93460.22
2023-11-15T08:02:54.649Z,93460.25
2023-11-15T08:05:21.849Z,93443.50
2023-11-15T08:07:49.814Z,93454.94
2023-11-15T08:10:16.872Z,93463.63
2023-11-15T08:12:49.483Z,93458.03
2023-11-15T08:15:17.624Z,93454.41
2023-11-15T08:17:48.191Z,93465.25
2023-11-15T08:20:16.030Z,93453.19
2023-11-15T08:22:43.221Z,93449.91
2023-11-15T08:25:11.055Z,93468.09
2023-11-15T08:27:39.904Z,93449.03
2023-11-15T08:30:11.598Z,93457.59
2023-11-15T08:32:38.642Z,93468.69
2023-11-15T08:35:06.883Z,93464.59
2023-11-15T08:37:33.834Z,93474.63
2023-11-15T08:40:03.636Z,93475.63
2023-11-15T08:42:32.069Z,93493.34
2023-11-15T08:44:58.780Z,93477.88
2023-11-15T08:47:26.449Z,93492.03
2023-11-15T08:49:54.903Z,93497.44
2023-11-15T08:52:25.003Z,93511.09
2023-11-15T08:54:52.357Z,93507.47
2023-11-15T08:57:19.183Z,93505.34
2023-11-15T08:59:46.776Z,93504.03
2023-11-15T09:02:16.415Z,93496.34
2023-11-15T09:04:43.478Z,93493.25
2023-11-15T09:07:12.049Z,93498.28
2023-11-15T09:09:43.069Z,93502.69
2023-11-15T09:12:11.544Z,93509.25
2023-11-15T09:14:40.040Z,93522.06
2023-11-15T09:17:14.022Z,93530.47
2023-11-15T09:19:40.847Z,93533.75
2023-11-15T09:22:07.723Z,93544.06
2023-11-15T09:24:36.890Z,93544.75
2023-11-15T09:27:03.738Z,93544.44
2023-11-15T09:29:30.446Z,93563.56
2023-11-15T09:31:57.281Z,93571.38
2023-11-15T09:34:26.741Z,93577.25
2023-11-15T09:37:03.494Z,93583.59
2023-11-15T09:39:31.643Z,93601.44
2023-11-15T09:41:59.001Z,93595.50
2023-11-15T09:44:27.259Z,93603.78
2023-11-15T09:46:55.547Z,93627.63
2023-11-15T09:49:25.828Z,93642.97
2023-11-15T09:51:54.021Z,93634.09
2023-11-15T09:54:24.838Z,93634.88
2023-11-15T09:56:51.837Z,93634.16
2023-11-15T09:59:19.573Z,93635.34
2023-11-15T10:01:49.712Z,93640.38
2023-11-15T10:04:27.362Z,93643.44
2023-11-15T10:07:00.764Z,93644.22
2023-11-15T10:09:44.039Z,93659.59
2023-11-15T10:12:11.741Z,93653.03
2023-11-15T10:15:06.507Z,93654.59
2023-11-15T10:17:41.599Z,93659.56
2023-11-15T10:20:23.299Z,93665.72
2023-11-15T10:22:52.068Z,93674.19
2023-11-15T10:25:19.386Z,93679.59
2023-11-15T10:27:46.216Z,93691.78
2023-11-15T10:30:17.333Z,93719.72
2023-11-15T10:32:49.563Z,93714.03
2023-11-15T10:35:31.202Z,93711.50
2023-11-15T10:37:58.659Z,93725.56
2023-11-15T10:40:30.658Z,93734.91
2023-11-15T10:43:00.138Z,93732.56
2023-11-15T10:45:31.444Z,93744.88
2023-11-15T10:48:06.891Z,93729.88
2023-11-15T10:50:35.966Z,93740.00
2023-11-15T10:53:03.714Z,93747.66
2023-11-15T10:55:32.538Z,93748.41
2023-11-15T10:58:04.296Z,93749.91
2023-11-15T11:00:32.757Z,93755.66
2023-11-15T11:02:59.783Z,93772.59
2023-11-15T11:05:50.156Z,93771.78
2023-11-15T11:08:36.171Z,93761.31
2023-11-15T11:11:12.250Z,93766.25
2023-11-15T11:13:42.046Z,93763.50
2023-11-15T11:16:34.906Z,93762.59
2023-11-15T11:19:23.492Z,93766.50
2023-11-15T11:22:13.515Z,93761.16
2023-11-15T11:24:47.463Z,93776.16
2023-11-15T11:27:17.623Z,93773.41
2023-11-15T11:29:50.473Z,93779.53
2023-11-15T11:32:27.906Z,93773.81
2023-11-15T11:35:07.893Z,93772.28
2023-11-15T11:37:48.764Z,93778.44
2023-11-15T11:40:16.858Z,93781.16
2023-11-15T11:42:45.444Z,93775.38
2023-11-15T11:45:14.095Z,93767.69
2023-11-15T11:47:47.614Z,93788.06
2023-11-15T11:50:34.406Z,93778.06
2023-11-15T11:53:01.508Z,93791.53
2023-11-15T11:55:32.840Z,93783.44
2023-11-15T11:58:03.940Z,93776.13
2023-11-15T12:00:30.787Z,93779.97
2023-11-15T12:03:01.330Z,93781.84
2023-11-15T12:05:33.622Z,93782.28
2023-11-15T12:08:02.773Z,93778.78
2023-11-15T12:10:29.922Z,93783.38
2023-11-15T12:13:00.643Z,93777.97
2023-11-15T12:15:28.563Z,93780.09
2023-11-15T12:17:58.397Z,93788.28
2023-11-15T12:20:51.425Z,93785.28
2023-11-15T12:23:18.627Z,93781.38
2023-11-15T12:25:48.946Z,93780.19
2023-11-15T12:28:27.589Z,93772.41
2023-11-15T12:30:55.955Z,93785.97
2023-11-15T12:33:23.989Z,93787.25
2023-11-15T12:35:54.316Z,93774.13
2023-11-15T12:38:21.442Z,93781.16
2023-11-15T12:40:48.870Z,93781.16
2023-11-15T12:43:20.814Z,93781.53
2023-11-15T12:45:48.138Z,93783.84
2023-11-15T12:48:16.181Z,93788.81
2023-11-15T12:50:45.202Z,93793.84
2023-11-15T12:53:15.892Z,93793.09
2023-11-15T12:55:50.778Z,93807.59
2023-11-15T12:58:40.794Z,93805.75
2023-11-15T13:01:09.157Z,93803.38
2023-11-15T13:03:39.887Z,93792.53
2023-11-15T13:06:14.485Z,93791.91
2023-11-15T13:08:44.693Z,93800.69
2023-11-15T13:11:15.951Z,93798.00
2023-11-15T13:13:45.691Z,93778.06
2023-11-15T13:16:16.427Z,93784.19
2023-11-15T13:18:46.135Z,93773.84
2023-11-15T13:21:14.497Z,93776.47
2023-11-15T13:23:46.573Z,93759.53
2023-11-15T13:26:16.951Z,93765.69
2023-11-15T13:28:45.463Z,93760.69
2023-11-15T13:31:16.268Z,93761.03
2023-11-15T13:33:46.544Z,93758.75
2023-11-15T13:36:17.211Z,93753.34
2023-11-15T13:38:44.117Z,93756.06
2023-11-15T13:41:14.350Z,93771.47
2023-11-15T13:43:41.962Z,93770.31
2023-11-15T13:46:09.812Z,93769.88
2023-11-15T13:48:37.496Z,93767.66
2023-11-15T13:51:08.023Z,93778.75
2023-11-15T13:53:37.937Z,93766.16
2023-11-15T13:56:06.391Z,93774.53
2023-11-15T13:58:33.214Z,93778.06
2023-11-15T14:01:00.329Z,93793.44
2023-11-15T14:03:30.245Z,93785.38
2023-11-15T14:06:01.333Z,93780.38
2023-11-15T14:08:47.496Z,93793.44
2023-11-15T14:11:23.500Z,93809.13
2023-11-15T14:13:50.286Z,93816.44
2023-11-15T14:16:17.162Z,93811.13
2023-11-15T14:18:48.762Z,93818.72
2023-11-15T14:21:15.857Z,93825.00
2023-11-15T14:23:42.642Z,93818.44
2023-11-15T14:26:09.884Z,93817.31
2023-11-15T14:28:36.951Z,93816.53
2023-11-15T14:31:05.391Z,93831.13
2023-11-15T14:33:37.897Z,93830.59
2023-11-15T14:36:07.382Z,93835.31
2023-11-15T14:38:34.056Z,93851.53
2023-11-15T14:41:28.138Z,93842.28
2023-11-15T14:43:55.205Z,93846.44
2023-11-15T14:46:26.744Z,93871.63
2023-11-15T14:48:53.922Z,93865.53
2023-11-15T14:51:21.638Z,93870.25
2023-11-15T14:53:56.685Z,93858.75
2023-11-15T14:56:24.288Z,93870.22
2023-11-15T14:58:54.699Z,93880.19
2023-11-15T15:01:38.381Z,93881.78
2023-11-15T15:04:50.572Z,93892.56
2023-11-15T15:07:17.558Z,93896.00
2023-11-15T15:09:48.395Z,93895.66
2023-11-15T15:12:15.707Z,93881.94
2023-11-15T15:14:42.970Z,93868.09
2023-11-15T15:17:21.261Z,93879.28
2023-11-15T15:19:52.728Z,93888.91
2023-11-15T15:22:19.481Z,93901.97
2023-11-15T15:24:54.024Z,93917.22
2023-11-15T15:27:28.909Z,93918.84
2023-11-15T15:30:02.576Z,93921.75
2023-11-15T15:32:29.461Z,93924.00
2023-11-15T15:35:02.049Z,93900.91
2023-11-15T15:37:29.488Z,93896.59
2023-11-15T15:40:01.299Z,93894.38
2023-11-15T15:42:28.504Z,93897.97
2023-11-15T15:44:59.408Z,93929.09
2023-11-15T15:47:35.620Z,93939.25
2023-11-15T15:50:02.300Z,93946.38
2023-11-15T15:52:29.011Z,93946.41
2023-11-15T15:55:00.675Z,93956.34
2023-11-15T15:57:27.800Z,93966.09
2023-11-15T15:59:54.495Z,93962.00
2023-11-15T16:02:26.995Z,93974.00
2023-11-15T16:04:56.111Z,93967.25
2023-11-15T16:07:22.785Z,93979.84
2023-11-15T16:09:49.402Z,93984.16
2023-11-15T16:12:16.128Z,93982.00
2023-11-15T16:14:42.873Z,93988.69
2023-11-15T16:17:09.638Z,93989.81
2023-11-15T16:19:37.266Z,93989.84
2023-11-15T16:22:04.140Z,93988.09
2023-11-15T16:24:33.364Z,93998.69
2023-11-15T16:27:00.275Z,93999.59
2023-11-15T16:29:26.967Z,93999.81
2023-11-15T16:31:53.609Z,93993.53
2023-11-15T16:34:21.646Z,93995.84
2023-11-15T16:36:48.376Z,93998.69
2023-11-15T16:39:15.190Z,94002.63
2023-11-15T16:41:51.450Z,93999.44
2023-11-15T16:44:19.984Z,93995.84
2023-11-15T16:46:48.494Z,94000.56
2023-11-15T16:49:16.467Z,93996.09
2023-11-15T16:51:44.168Z,94006.63
2023-11-15T16:54:11.206Z,94009.81
2023-11-15T16:56:37.962Z,94006.38
2023-11-15T16:59:04.773Z,94016.59
2023-11-15T17:01:35.203Z,94017.66
2023-11-15T17:04:02.759Z,94004.16
2023-11-15T17:06:29.819Z,93999.81
2023-11-15T17:08:56.585Z,93985.75
2023-11-15T17:11:24.705Z,93959.97
2023-11-15T17:13:51.450Z,93975.09
2023-11-15T17:16:19.746Z,93974.94
2023-11-15T17:18:50.050Z,93979.66
2023-11-15T17:21:17.046Z,93980.72
2023-11-15T17:23:45.239Z,93969.28
2023-11-15T17:26:13.601Z,93962.78
2023-11-15T17:28:44.267Z,93975.78
2023-11-15T17:31:12.209Z,93956.34
2023-11-15T17:33:44.239Z,93951.88
2023-11-15T17:36:11.144Z,93972.63
2023-11-15T17:38:37.862Z,93997.53
2023-11-15T17:41:05.388Z,93999.03
2023-11-15T17:43:37.248Z,94008.97
2023-11-15T17:46:04.249Z,94008.50
2023-11-15T17:48:32.065Z,94024.63
2023-11-15T17:51:01.110Z,94012.47
2023-11-15T17:56:33.297Z,93990.63
2023-11-15T17:59:00.608Z,93985.13
2023-11-15T18:01:36.035Z,93976.75
2023-11-15T18:04:03.204Z,93946.81
2023-11-15T18:06:30.149Z,93931.50
2023-11-15T18:08:57.574Z,93927.00
2023-11-15T18:11:25.101Z,93944.38
2023-11-15T18:13:52.943Z,93954.88
2023-11-15T18:16:20.777Z,93961.69
2023-11-15T18:18:47.601Z,93967.22
2023-11-15T18:21:21.066Z,93975.53
2023-11-15T18:23:50.710Z,93990.50
2023-11-15T18:26:24.140Z,93984.91
2023-11-15T18:28:50.854Z,93996.19
2023-11-15T18:31:17.642Z,93998.41
2023-11-15T18:33:44.549Z,93993.88
2023-11-15T18:36:12.049Z,93987.34
2023-11-15T18:38:38.863Z,93985.19
2023-11-15T18:41:06.063Z,93989.50
2023-11-15T18:43:32.766Z,93994.16
2023-11-15T18:45:59.668Z,94003.50
2023-11-15T18:48:27.302Z,94006.50
2023-11-15T18:50:54.116Z,94005.00
2023-11-15T18:53:20.916Z,94000.03
2023-11-15T18:55:47.611Z,94028.63
2023-11-15T18:58:14.423Z,94057.28
2023-11-15T19:00:42.188Z,94054.31
2023-11-15T19:03:09.104Z,94059.38
2023-11-15T19:05:36.070Z,94052.38
2023-11-15T19:08:03.764Z,94048.38
2023-11-15T19:10:33.505Z,94048.66
2023-11-15T19:13:00.427Z,94047.06
2023-11-15T19:15:27.482Z,94047.84
2023-11-15T19:17:57.379Z,94051.56
2023-11-15T19:20:30.163Z,94048.38
2023-11-15T19:22:57.050Z,94064.03
2023-11-15T19:25:24.163Z,94082.84
2023-11-15T19:27:50.897Z,94080.44
2023-11-15T19:30:18.715Z,94072.63
2023-11-15T19:32:45.833Z,94075.34
2023-11-15T19:35:16.331Z,94066.50
2023-11-15T19:37:44.556Z,94065.19
2023-11-15T19:40:12.644Z,94067.84
2023-11-15T19:42:39.935Z,94063.53
2023-11-15T19:45:08.934Z,94063.78
2023-11-15T19:47:36.249Z,94068.88
2023-11-15T19:50:04.040Z,94081.16
2023-11-15T19:52:30.835Z,94091.72
2023-11-15T19:54:58.858Z,94091.53
2023-11-15T19:57:27.918Z,94070.69
2023-11-15T19:59:58.745Z,94073.00
2023-11-15T20:02:31.583Z,94087.38
2023-11-15T20:05:05.538Z,94081.00
2023-11-15T20:07:33.460Z,94084.34
2023-11-15T20:10:00.215Z,94081.16
2023-11-15T20:12:29.094Z,94079.69
2023-11-15T20:14:55.793Z,94098.91
2023-11-15T20:17:22.759Z,94120.19
2023-11-15T20:19:49.506Z,94113.56
2023-11-15T20:22:16.241Z,94098.78
2023-11-15T20:24:42.910Z,94070.91
2023-11-15T20:27:09.664Z,94094.81
2023-11-15T20:29:37.414Z,94128.63
2023-11-15T20:32:04.452Z,94140.81
2023-11-15T20:34:31.185Z,94136.25
2023-11-15T20:37:01.126Z,94128.78
2023-11-15T20:39:31.170Z,94101.56
2023-11-15T20:41:59.567Z,94095.78
2023-11-15T20:44:26.290Z,94118.84
2023-11-15T20:46:53.075Z,94111.25
2023-11-15T20:49:20.109Z,94096.53
2023-11-15T20:51:50.238Z,94093.50
2023-11-15T20:54:18.983Z,94079.16
2023-11-15T20:56:46.116Z,94109.31
2023-11-15T20:59:13.548Z,94120.75
2023-11-15T21:01:41.024Z,94123.72
2023-11-15T21:04:14.141Z,94132.28
2023-11-15T21:06:41.037Z,94137.84
2023-11-15T21:09:10.856Z,94147.06
2023-11-15T21:11:40.284Z,94160.88
2023-11-15T21:14:08.997Z,94159.50
2023-11-15T21:19:46.796Z,94166.47
2023-11-15T21:22:13.468Z,94171.56
2023-11-15T21:24:42.419Z,94175.84
2023-11-15T21:27:16.126Z,94175.53
2023-11-15T21:29:42.841Z,94181.59
2023-11-15T21:32:11.366Z,94173.31
2023-11-15T21:34:38.409Z,94152.13
2023-11-15T21:37:13.333Z,94153.78
2023-11-15T21:39:44.847Z,94158.59
2023-11-15T21:42:12.421Z,94174.00
2023-11-15T21:44:39.206Z,94190.03
2023-11-15T21:47:05.886Z,94203.22
2023-11-15T21:49:32.555Z,94183.34
2023-11-15T21:51:59.199Z,94179.34
2023-11-15T21:54:25.999Z,94165.00
2023-11-15T21:56:52.697Z,94156.34
2023-11-15T21:59:20.096Z,94158.59
2023-11-15T22:01:46.981Z,94153.53
2023-11-15T22:04:14.306Z,94154.06
2023-11-15T22:06:46.615Z,94163.53
2023-11-15T22:09:20.076Z,94160.72
2023-11-15T22:11:48.447Z,94155.50
2023-11-15T22:14:18.060Z,94157.69
2023-11-15T22:16:45.764Z,94131.72
2023-11-15T22:19:12.463Z,94125.34
2023-11-15T22:21:39.426Z,94111.03
2023-11-15T22:24:06.495Z,94110.69
2023-11-15T22:26:33.199Z,94117.47
2023-11-15T22:28:59.852Z,94127.78
2023-11-15T22:31:27.427Z,94130.78
2023-11-15T22:33:54.682Z,94134.19
2023-11-15T22:36:21.558Z,94128.19
2023-11-15T22:38:50.397Z,94134.78
2023-11-15T22:41:18.026Z,94149.56
2023-11-15T22:43:44.923Z,94150.13
2023-11-15T22:46:11.612Z,94159.81
2023-11-15T22:48:38.485Z,94162.97
2023-11-15T22:51:05.648Z,94186.97
2023-11-15T22:53:32.332Z,94186.13
2023-11-15T22:55:58.961Z,94183.28
2023-11-15T22:58:25.688Z,94197.91
2023-11-15T23:00:54.799Z,94196.31
2023-11-15T23:03:21.925Z,94209.09
2023-11-15T23:05:49.927Z,94218.47
2023-11-15T23:08:18.225Z,94216.50
2023-11-15T23:10:45.013Z,94218.09
2023-11-15T23:13:11.674Z,94224.53
2023-11-15T23:15:39.445Z,94216.59
2023-11-15T23:18:06.372Z,94216.63
2023-11-15T23:20:37.109Z,94221.31
2023-11-15T23:23:05.707Z,94210.69
2023-11-15T23:25:34.369Z,94209.84
2023-11-15T23:28:02.347Z,94208.06
2023-11-15T23:30:29.196Z,94199.41
2023-11-15T23:32:56.216Z,94201.53
2023-11-15T23:35:23.397Z,94219.47
2023-11-15T23:37:50.674Z,94216.19
2023-11-15T23:40:19.144Z,94215.16
2023-11-15T23:42:47.541Z,94219.31
2023-11-15T23:45:15.848Z,94207.84
2023-11-15T23:47:43.223Z,94205.03
2023-11-15T23:50:10.726Z,94201.50
2023-11-15T23:52:38.012Z,94198.19
2023-11-15T23:55:05.587Z,94195.84
2023-11-15T23:57:33.719Z,94196.16
